sensor_id;sensor_type;location;lat;lon;timestamp;pressure;altitude;pressure_sealevel;temperature;humidity
60974;BME280;46846;51.528;5.076;2023-05-22T00:02:15;101003.81;;;19.53;56.70
60974;BME280;46846;51.528;5.076;2023-05-22T00:04:40;101006.84;;;19.49;56.45
60974;BME280;46846;51.528;5.076;2023-05-22T00:07:06;101005.25;;;19.46;56.49
60974;BME280;46846;51.528;5.076;2023-05-22T00:09:31;100995.53;;;19.44;56.50
60974;BME280;46846;51.528;5.076;2023-05-22T00:11:57;100998.75;;;19.36;56.71
60974;BME280;46846;51.528;5.076;2023-05-22T00:14:23;101004.38;;;19.33;56.87
60974;BME280;46846;51.528;5.076;2023-05-22T00:16:48;100999.06;;;19.31;56.76
60974;BME280;46846;51.528;5.076;2023-05-22T00:19:14;100993.91;;;19.28;56.55
60974;BME280;46846;51.528;5.076;2023-05-22T00:21:41;100991.41;;;19.25;56.81
60974;BME280;46846;51.528;5.076;2023-05-22T00:24:08;100994.31;;;19.22;56.81
60974;BME280;46846;51.528;5.076;2023-05-22T00:26:33;100978.97;;;19.22;56.83
60974;BME280;46846;51.528;5.076;2023-05-22T00:28:59;100993.53;;;19.20;56.61
60974;BME280;46846;51.528;5.076;2023-05-22T00:31:24;100977.34;;;19.20;56.53
60974;BME280;46846;51.528;5.076;2023-05-22T00:33:50;100976.59;;;19.18;56.62
60974;BME280;46846;51.528;5.076;2023-05-22T00:36:15;100981.47;;;19.12;56.69
60974;BME280;46846;51.528;5.076;2023-05-22T00:38:42;100990.63;;;19.10;56.77
60974;BME280;46846;51.528;5.076;2023-05-22T00:41:08;100978.31;;;19.06;56.92
60974;BME280;46846;51.528;5.076;2023-05-22T00:43:33;100968.50;;;19.05;56.58
60974;BME280;46846;51.528;5.076;2023-05-22T00:45:59;100966.19;;;18.98;56.81
60974;BME280;46846;51.528;5.076;2023-05-22T00:48:25;100965.34;;;18.98;56.69
60974;BME280;46846;51.528;5.076;2023-05-22T00:50:52;100975.34;;;18.96;56.77
60974;BME280;46846;51.528;5.076;2023-05-22T00:53:19;100970.06;;;18.94;56.62
60974;BME280;46846;51.528;5.076;2023-05-22T00:55:45;100967.56;;;18.91;56.77
60974;BME280;46846;51.528;5.076;2023-05-22T00:58:16;100966.72;;;18.91;56.66
60974;BME280;46846;51.528;5.076;2023-05-22T01:00:43;100962.72;;;18.83;56.80
60974;BME280;46846;51.528;5.076;2023-05-22T01:03:09;100972.72;;;18.81;56.77
60974;BME280;46846;51.528;5.076;2023-05-22T01:05:36;100963.88;;;18.79;56.79
60974;BME280;46846;51.528;5.076;2023-05-22T01:08:03;100972.84;;;18.80;56.68
60974;BME280;46846;51.528;5.076;2023-05-22T01:10:29;100959.56;;;18.77;56.75
60974;BME280;46846;51.528;5.076;2023-05-22T01:15:42;100966.06;;;18.59;56.94
60974;BME280;46846;51.528;5.076;2023-05-22T01:18:17;100974.06;;;18.61;56.97
60974;BME280;46846;51.528;5.076;2023-05-22T01:21:04;100970.59;;;18.59;56.77
60974;BME280;46846;51.528;5.076;2023-05-22T01:23:48;100976.19;;;18.56;56.90
60974;BME280;46846;51.528;5.076;2023-05-22T01:26:25;100976.31;;;18.54;56.92
60974;BME280;46846;51.528;5.076;2023-05-22T01:31:25;100982.09;;;18.48;56.90
60974;BME280;46846;51.528;5.076;2023-05-22T01:33:53;100978.66;;;18.46;56.94
60974;BME280;46846;51.528;5.076;2023-05-22T01:36:21;100983.16;;;18.45;56.94
60974;BME280;46846;51.528;5.076;2023-05-22T01:38:49;100980.69;;;18.42;56.92
60974;BME280;46846;51.528;5.076;2023-05-22T01:41:16;100973.84;;;18.37;57.08
60974;BME280;46846;51.528;5.076;2023-05-22T01:43:45;100974.72;;;18.37;57.02
60974;BME280;46846;51.528;5.076;2023-05-22T01:46:10;100973.38;;;18.30;57.20
60974;BME280;46846;51.528;5.076;2023-05-22T01:48:36;100966.19;;;18.30;57.12
60974;BME280;46846;51.528;5.076;2023-05-22T01:53:56;100969.28;;;18.24;57.11
60974;BME280;46846;51.528;5.076;2023-05-22T01:56:36;100961.94;;;18.26;57.16
60974;BME280;46846;51.528;5.076;2023-05-22T01:59:12;100961.38;;;18.21;57.05
60974;BME280;46846;51.528;5.076;2023-05-22T02:01:41;100967.06;;;18.16;57.27
60974;BME280;46846;51.528;5.076;2023-05-22T02:04:09;100969.00;;;18.14;57.16
60974;BME280;46846;51.528;5.076;2023-05-22T02:06:36;100965.63;;;18.11;57.03
60974;BME280;46846;51.528;5.076;2023-05-22T02:09:02;100967.38;;;18.12;57.16
60974;BME280;46846;51.528;5.076;2023-05-22T02:11:30;100963.13;;;18.08;57.20
60974;BME280;46846;51.528;5.076;2023-05-22T02:13:57;100970.53;;;18.04;57.14
60974;BME280;46846;51.528;5.076;2023-05-22T02:16:22;100956.28;;;18.02;57.09
60974;BME280;46846;51.528;5.076;2023-05-22T02:18:48;100963.50;;;18.01;57.35
60974;BME280;46846;51.528;5.076;2023-05-22T02:21:15;100975.34;;;17.99;57.23
60974;BME280;46846;51.528;5.076;2023-05-22T02:23:40;100959.38;;;17.96;57.19
60974;BME280;46846;51.528;5.076;2023-05-22T02:26:06;100955.91;;;17.94;57.27
60974;BME280;46846;51.528;5.076;2023-05-22T02:28:32;100960.53;;;17.92;57.20
60974;BME280;46846;51.528;5.076;2023-05-22T02:30:57;100962.47;;;17.89;57.29
60974;BME280;46846;51.528;5.076;2023-05-22T02:33:22;100951.88;;;17.86;57.23
60974;BME280;46846;51.528;5.076;2023-05-22T02:35:48;100955.75;;;17.82;57.35
60974;BME280;46846;51.528;5.076;2023-05-22T02:38:13;100947.84;;;17.79;57.41
60974;BME280;46846;51.528;5.076;2023-05-22T02:40:39;100950.63;;;17.77;57.49
60974;BME280;46846;51.528;5.076;2023-05-22T02:43:04;100948.22;;;17.73;57.65
60974;BME280;46846;51.528;5.076;2023-05-22T02:45:30;100948.22;;;17.73;57.50
60974;BME280;46846;51.528;5.076;2023-05-22T02:47:55;100940.38;;;17.70;57.62
60974;BME280;46846;51.528;5.076;2023-05-22T02:50:21;100928.84;;;17.68;57.56
60974;BME280;46846;51.528;5.076;2023-05-22T02:52:46;100934.41;;;17.65;57.58
60974;BME280;46846;51.528;5.076;2023-05-22T02:55:11;100936.34;;;17.62;57.59
60974;BME280;46846;51.528;5.076;2023-05-22T02:57:37;100932.88;;;17.60;57.54
60974;BME280;46846;51.528;5.076;2023-05-22T03:00:03;100933.94;;;17.58;57.62
60974;BME280;46846;51.528;5.076;2023-05-22T03:02:31;100936.78;;;17.55;57.42
60974;BME280;46846;51.528;5.076;2023-05-22T03:04:57;100942.28;;;17.53;57.75
60974;BME280;46846;51.528;5.076;2023-05-22T03:07:26;100936.13;;;17.51;57.74
60974;BME280;46846;51.528;5.076;2023-05-22T03:09:53;100941.63;;;17.49;57.71
60974;BME280;46846;51.528;5.076;2023-05-22T03:12:19;100932.88;;;17.46;57.64
60974;BME280;46846;51.528;5.076;2023-05-22T03:14:46;100937.47;;;17.44;57.63
60974;BME280;46846;51.528;5.076;2023-05-22T03:17:11;100929.69;;;17.39;57.89
60974;BME280;46846;51.528;5.076;2023-05-22T03:19:37;100935.94;;;17.40;57.54
60974;BME280;46846;51.528;5.076;2023-05-22T03:22:02;100935.25;;;17.36;57.65
60974;BME280;46846;51.528;5.076;2023-05-22T03:24:28;100930.94;;;17.33;57.79
60974;BME280;46846;51.528;5.076;2023-05-22T03:26:53;100934.59;;;17.32;57.74
60974;BME280;46846;51.528;5.076;2023-05-22T03:29:18;100930.25;;;17.30;57.75
60974;BME280;46846;51.528;5.076;2023-05-22T03:31:45;100925.94;;;17.27;57.85
60974;BME280;46846;51.528;5.076;2023-05-22T03:34:10;100930.53;;;17.25;57.76
60974;BME280;46846;51.528;5.076;2023-05-22T03:36:36;100935.16;;;17.23;57.81
60974;BME280;46846;51.528;5.076;2023-05-22T03:39:02;100924.56;;;17.20;57.81
60974;BME280;46846;51.528;5.076;2023-05-22T03:41:28;100927.25;;;17.20;57.83
60974;BME280;46846;51.528;5.076;2023-05-22T03:43:53;100924.69;;;17.18;57.91
60974;BME280;46846;51.528;5.076;2023-05-22T03:46:19;100926.69;;;17.15;57.72
60974;BME280;46846;51.528;5.076;2023-05-22T03:48:44;100916.13;;;17.12;57.83
60974;BME280;46846;51.528;5.076;2023-05-22T03:51:10;100925.16;;;17.11;57.83
60974;BME280;46846;51.528;5.076;2023-05-22T03:53:35;100916.41;;;17.07;57.91
60974;BME280;46846;51.528;5.076;2023-05-22T03:56:00;100920.13;;;17.04;57.84
60974;BME280;46846;51.528;5.076;2023-05-22T03:58:26;100926.47;;;17.03;57.90
60974;BME280;46846;51.528;5.076;2023-05-22T04:00:53;100923.94;;;17.00;57.96
60974;BME280;46846;51.528;5.076;2023-05-22T04:03:18;100915.09;;;16.98;58.00
60974;BME280;46846;51.528;5.076;2023-05-22T04:05:45;100913.56;;;16.94;57.91
60974;BME280;46846;51.528;5.076;2023-05-22T04:08:10;100912.00;;;16.90;58.09
60974;BME280;46846;51.528;5.076;2023-05-22T04:10:36;100923.91;;;16.86;58.04
60974;BME280;46846;51.528;5.076;2023-05-22T04:13:02;100919.38;;;16.86;58.16
60974;BME280;46846;51.528;5.076;2023-05-22T04:15:28;100924.75;;;16.86;57.97
60974;BME280;46846;51.528;5.076;2023-05-22T04:17:53;100927.66;;;16.83;58.00
60974;BME280;46846;51.528;5.076;2023-05-22T04:20:19;100929.56;;;16.81;57.99
60974;BME280;46846;51.528;5.076;2023-05-22T04:22:46;100925.25;;;16.78;58.19
60974;BME280;46846;51.528;5.076;2023-05-22T04:25:13;100930.78;;;16.75;58.22
60974;BME280;46846;51.528;5.076;2023-05-22T04:27:38;100927.50;;;16.70;58.21
60974;BME280;46846;51.528;5.076;2023-05-22T04:30:05;100927.59;;;16.68;58.27
60974;BME280;46846;51.528;5.076;2023-05-22T04:32:31;100927.69;;;16.67;58.14
60974;BME280;46846;51.528;5.076;2023-05-22T04:34:56;100926.16;;;16.63;58.30
60974;BME280;46846;51.528;5.076;2023-05-22T04:37:24;100932.47;;;16.62;58.24
60974;BME280;46846;51.528;5.076;2023-05-22T04:39:52;100927.88;;;16.64;58.22
60974;BME280;46846;51.528;5.076;2023-05-22T04:42:22;100927.19;;;16.60;58.11
60974;BME280;46846;51.528;5.076;2023-05-22T04:44:52;100922.94;;;16.56;58.37
60974;BME280;46846;51.528;5.076;2023-05-22T04:47:18;100928.41;;;16.54;58.23
60974;BME280;46846;51.528;5.076;2023-05-22T04:49:44;100930.31;;;16.52;58.39
60974;BME280;46846;51.528;5.076;2023-05-22T04:52:10;100935.00;;;16.49;58.38
60974;BME280;46846;51.528;5.076;2023-05-22T04:54:36;100935.00;;;16.49;58.22
60974;BME280;46846;51.528;5.076;2023-05-22T04:57:02;100931.25;;;16.51;58.47
60974;BME280;46846;51.528;5.076;2023-05-22T04:59:30;100937.59;;;16.50;58.11
60974;BME280;46846;51.528;5.076;2023-05-22T05:01:57;100940.47;;;16.47;58.37
60974;BME280;46846;51.528;5.076;2023-05-22T05:04:23;100935.34;;;16.43;58.25
60974;BME280;46846;51.528;5.076;2023-05-22T05:06:48;100947.84;;;16.44;58.64
60974;BME280;46846;51.528;5.076;2023-05-22T05:09:14;100948.06;;;16.39;58.55
60974;BME280;46846;51.528;5.076;2023-05-22T05:11:39;100954.31;;;16.39;58.56
60974;BME280;46846;51.528;5.076;2023-05-22T05:14:04;100955.28;;;16.38;58.38
60974;BME280;46846;51.528;5.076;2023-05-22T05:16:30;100958.81;;;16.39;58.53
60974;BME280;46846;51.528;5.076;2023-05-22T05:18:55;100959.63;;;16.41;59.15
60974;BME280;46846;51.528;5.076;2023-05-22T05:21:21;100965.41;;;16.33;58.60
60974;BME280;46846;51.528;5.076;2023-05-22T05:23:47;100967.34;;;16.31;58.49
60974;BME280;46846;51.528;5.076;2023-05-22T05:26:12;100956.84;;;16.26;58.53
60974;BME280;46846;51.528;5.076;2023-05-22T05:28:38;100960.50;;;16.25;58.72
60974;BME280;46846;51.528;5.076;2023-05-22T05:31:04;100957.97;;;16.22;58.85
60974;BME280;46846;51.528;5.076;2023-05-22T05:33:29;100955.13;;;16.25;58.71
60974;BME280;46846;51.528;5.076;2023-05-22T05:35:55;100957.47;;;16.16;58.63
60974;BME280;46846;51.528;5.076;2023-05-22T05:38:21;100957.38;;;16.17;58.72
60974;BME280;46846;51.528;5.076;2023-05-22T05:40:47;100962.91;;;16.14;58.87
60974;BME280;46846;51.528;5.076;2023-05-22T05:43:12;100965.31;;;16.19;58.90
60974;BME280;46846;51.528;5.076;2023-05-22T05:45:40;100968.28;;;16.14;59.18
60974;BME280;46846;51.528;5.076;2023-05-22T05:48:05;100970.97;;;16.14;58.84
60974;BME280;46846;51.528;5.076;2023-05-22T05:50:32;100970.00;;;16.15;58.85
60974;BME280;46846;51.528;5.076;2023-05-22T05:52:57;100974.53;;;16.15;58.87
60974;BME280;46846;51.528;5.076;2023-05-22T05:55:22;100974.53;;;16.15;58.93
60974;BME280;46846;51.528;5.076;2023-05-22T05:57:48;100978.31;;;16.10;58.97
60974;BME280;46846;51.528;5.076;2023-05-22T06:00:14;100974.78;;;16.10;59.07
60974;BME280;46846;51.528;5.076;2023-05-22T06:02:39;100983.94;;;16.06;58.84
60974;BME280;46846;51.528;5.076;2023-05-22T06:05:05;100986.63;;;16.06;59.71
60974;BME280;46846;51.528;5.076;2023-05-22T06:07:33;100986.97;;;15.99;59.73
60974;BME280;46846;51.528;5.076;2023-05-22T06:09:58;100983.16;;;16.04;59.73
60974;BME280;46846;51.528;5.076;2023-05-22T06:12:23;100979.53;;;16.05;59.74
60974;BME280;46846;51.528;5.076;2023-05-22T06:14:49;100989.50;;;16.03;59.73
60974;BME280;46846;51.528;5.076;2023-05-22T06:17:15;100982.47;;;16.00;59.85
60974;BME280;46846;51.528;5.076;2023-05-22T06:19:40;100986.81;;;16.03;59.78
60974;BME280;46846;51.528;5.076;2023-05-22T06:22:06;100983.25;;;16.02;59.71
60974;BME280;46846;51.528;5.076;2023-05-22T06:24:32;100989.56;;;16.01;59.68
60974;BME280;46846;51.528;5.076;2023-05-22T06:26:58;100992.25;;;16.01;59.77
60974;BME280;46846;51.528;5.076;2023-05-22T06:29:23;100995.97;;;15.98;59.60
60974;BME280;46846;51.528;5.076;2023-05-22T06:31:49;100990.84;;;15.94;59.88
60974;BME280;46846;51.528;5.076;2023-05-22T06:34:14;100992.66;;;15.93;59.47
60974;BME280;46846;51.528;5.076;2023-05-22T06:36:39;100996.75;;;16.01;59.59
60974;BME280;46846;51.528;5.076;2023-05-22T06:39:06;100997.53;;;16.03;59.31
60974;BME280;46846;51.528;5.076;2023-05-22T06:41:32;101001.97;;;16.04;59.41
60974;BME280;46846;51.528;5.076;2023-05-22T06:44:00;101002.72;;;16.06;59.38
60974;BME280;46846;51.528;5.076;2023-05-22T06:46:26;101014.56;;;16.02;59.27
60974;BME280;46846;51.528;5.076;2023-05-22T06:48:51;101016.22;;;16.04;59.05
60974;BME280;46846;51.528;5.076;2023-05-22T06:51:17;101017.81;;;16.08;59.34
60974;BME280;46846;51.528;5.076;2023-05-22T06:53:42;101016.34;;;16.03;59.26
60974;BME280;46846;51.528;5.076;2023-05-22T06:56:08;101016.22;;;16.04;59.36
60974;BME280;46846;51.528;5.076;2023-05-22T06:58:33;101018.84;;;16.06;59.12
60974;BME280;46846;51.528;5.076;2023-05-22T07:00:59;101026.25;;;16.01;59.23
60974;BME280;46846;51.528;5.076;2023-05-22T07:03:24;101027.91;;;16.03;59.52
60974;BME280;46846;51.528;5.076;2023-05-22T07:05:51;101032.75;;;15.96;59.35
60974;BME280;46846;51.528;5.076;2023-05-22T07:08:17;101029.38;;;15.93;59.53
60974;BME280;46846;51.528;5.076;2023-05-22T07:10:42;101034.50;;;15.97;59.46
60974;BME280;46846;51.528;5.076;2023-05-22T07:13:08;101031.81;;;15.97;60.29
60974;BME280;46846;51.528;5.076;2023-05-22T07:15:33;101034.00;;;15.89;60.47
60974;BME280;46846;51.528;5.076;2023-05-22T07:17:59;101039.38;;;15.89;61.11
60974;BME280;46846;51.528;5.076;2023-05-22T07:20:24;101048.09;;;15.94;60.79
60974;BME280;46846;51.528;5.076;2023-05-22T07:22:50;101047.22;;;15.94;61.14
60974;BME280;46846;51.528;5.076;2023-05-22T07:25:15;101040.22;;;15.90;60.52
60974;BME280;46846;51.528;5.076;2023-05-22T07:27:41;101053.59;;;15.91;60.80
60974;BME280;46846;51.528;5.076;2023-05-22T07:30:07;101046.34;;;15.93;60.81
60974;BME280;46846;51.528;5.076;2023-05-22T07:32:32;101044.53;;;15.94;60.45
60974;BME280;46846;51.528;5.076;2023-05-22T07:34:58;101046.06;;;15.98;60.80
60974;BME280;46846;51.528;5.076;2023-05-22T07:37:23;101041.34;;;16.03;61.04
60974;BME280;46846;51.528;5.076;2023-05-22T07:39:48;101046.97;;;15.98;60.59
60974;BME280;46846;51.528;5.076;2023-05-22T07:42:14;101049.47;;;16.02;60.38
60974;BME280;46846;51.528;5.076;2023-05-22T07:44:40;101046.00;;;15.99;60.77
60974;BME280;46846;51.528;5.076;2023-05-22T07:47:05;101047.03;;;15.97;60.80
60974;BME280;46846;51.528;5.076;2023-05-22T07:49:31;101041.84;;;15.94;61.24
60974;BME280;46846;51.528;5.076;2023-05-22T07:51:56;101043.50;;;15.96;61.08
60974;BME280;46846;51.528;5.076;2023-05-22T07:54:22;101046.19;;;15.96;61.41
60974;BME280;46846;51.528;5.076;2023-05-22T07:56:47;101055.00;;;15.98;61.33
60974;BME280;46846;51.528;5.076;2023-05-22T07:59:14;101059.75;;;15.93;61.54
60974;BME280;46846;51.528;5.076;2023-05-22T08:01:40;101055.00;;;15.98;61.42
60974;BME280;46846;51.528;5.076;2023-05-22T08:04:06;101052.72;;;15.91;61.76
60974;BME280;46846;51.528;5.076;2023-05-22T08:06:31;101057.53;;;15.84;62.32
60974;BME280;46846;51.528;5.076;2023-05-22T08:08:59;101057.53;;;15.84;62.30
60974;BME280;46846;51.528;5.076;2023-05-22T08:11:24;101052.72;;;15.91;62.05
60974;BME280;46846;51.528;5.076;2023-05-22T08:13:50;101054.59;;;15.89;62.06
60974;BME280;46846;51.528;5.076;2023-05-22T08:16:15;101048.09;;;15.94;61.93
60974;BME280;46846;51.528;5.076;2023-05-22T08:18:41;101056.91;;;15.96;61.88
60974;BME280;46846;51.528;5.076;2023-05-22T08:21:06;101050.53;;;15.99;61.49
60974;BME280;46846;51.528;5.076;2023-05-22T08:23:31;101059.16;;;16.04;61.90
60974;BME280;46846;51.528;5.076;2023-05-22T08:25:59;101057.38;;;16.05;61.63
60974;BME280;46846;51.528;5.076;2023-05-22T08:28:25;101053.72;;;16.06;61.98
60974;BME280;46846;51.528;5.076;2023-05-22T08:30:50;101055.00;;;15.98;61.36
60974;BME280;46846;51.528;5.076;2023-05-22T08:33:16;101059.97;;;16.06;62.09
60974;BME280;46846;51.528;5.076;2023-05-22T08:35:41;101058.41;;;16.02;61.25
60974;BME280;46846;51.528;5.076;2023-05-22T08:38:06;101057.38;;;16.05;61.68
60974;BME280;46846;51.528;5.076;2023-05-22T08:40:36;101052.44;;;16.13;61.21
60974;BME280;46846;51.528;5.076;2023-05-22T08:43:05;101060.16;;;16.19;61.01
60974;BME280;46846;51.528;5.076;2023-05-22T08:45:33;101054.88;;;16.18;60.82
60974;BME280;46846;51.528;5.076;2023-05-22T08:48:03;101064.06;;;16.13;61.14
60974;BME280;46846;51.528;5.076;2023-05-22T08:50:30;101064.59;;;16.20;62.02
60974;BME280;46846;51.528;5.076;2023-05-22T08:52:55;101059.72;;;16.11;61.94
60974;BME280;46846;51.528;5.076;2023-05-22T08:55:23;101050.38;;;16.18;62.27
60974;BME280;46846;51.528;5.076;2023-05-22T08:57:49;101052.13;;;16.19;61.78
60974;BME280;46846;51.528;5.076;2023-05-22T09:00:16;101049.00;;;16.27;61.69
60974;BME280;46846;51.528;5.076;2023-05-22T09:02:42;101054.56;;;16.40;61.71
60974;BME280;46846;51.528;5.076;2023-05-22T09:05:08;101040.25;;;16.39;60.86
60974;BME280;46846;51.528;5.076;2023-05-22T09:07:34;101048.50;;;16.36;60.97
60974;BME280;46846;51.528;5.076;2023-05-22T09:10:00;101048.13;;;16.43;61.30
60974;BME280;46846;51.528;5.076;2023-05-22T09:12:30;101043.72;;;16.42;60.87
60974;BME280;46846;51.528;5.076;2023-05-22T09:14:56;101037.66;;;16.54;61.81
60974;BME280;46846;51.528;5.076;2023-05-22T09:17:27;101038.78;;;16.50;60.85
60974;BME280;46846;51.528;5.076;2023-05-22T09:19:52;101031.19;;;16.58;61.32
60974;BME280;46846;51.528;5.076;2023-05-22T09:22:18;101033.59;;;16.63;61.08
60974;BME280;46846;51.528;5.076;2023-05-22T09:24:44;101036.09;;;16.66;60.87
60974;BME280;46846;51.528;5.076;2023-05-22T09:27:11;101034.38;;;16.65;61.17
60974;BME280;46846;51.528;5.076;2023-05-22T09:29:47;101040.38;;;16.70;61.09
60974;BME280;46846;51.528;5.076;2023-05-22T09:32:13;101040.16;;;16.73;61.38
60974;BME280;46846;51.528;5.076;2023-05-22T09:34:39;101024.41;;;16.83;61.83
60974;BME280;46846;51.528;5.076;2023-05-22T09:37:04;101024.81;;;16.91;61.49
60974;BME280;46846;51.528;5.076;2023-05-22T09:39:41;101027.06;;;16.99;61.11
60974;BME280;46846;51.528;5.076;2023-05-22T09:42:08;101030.28;;;17.06;61.88
60974;BME280;46846;51.528;5.076;2023-05-22T09:44:34;101015.19;;;17.03;61.04
60974;BME280;46846;51.528;5.076;2023-05-22T09:47:00;101025.38;;;17.13;61.34
60974;BME280;46846;51.528;5.076;2023-05-22T09:49:25;101026.75;;;17.20;61.80
60974;BME280;46846;51.528;5.076;2023-05-22T09:51:53;101027.16;;;17.28;61.49
60974;BME280;46846;51.528;5.076;2023-05-22T09:54:19;101026.03;;;17.32;61.68
60974;BME280;46846;51.528;5.076;2023-05-22T09:56:48;101027.19;;;17.43;61.95
60974;BME280;46846;51.528;5.076;2023-05-22T09:59:19;101021.66;;;17.46;61.36
60974;BME280;46846;51.528;5.076;2023-05-22T10:01:47;101019.44;;;17.53;61.50
60974;BME280;46846;51.528;5.076;2023-05-22T10:04:17;101012.81;;;17.58;61.41
60974;BME280;46846;51.528;5.076;2023-05-22T10:06:45;101016.16;;;17.62;61.11
60974;BME280;46846;51.528;5.076;2023-05-22T10:09:14;101015.31;;;17.61;61.18
60974;BME280;46846;51.528;5.076;2023-05-22T10:11:42;101018.69;;;17.65;61.02
60974;BME280;46846;51.528;5.076;2023-05-22T10:14:08;101016.69;;;17.69;61.59
60974;BME280;46846;51.528;5.076;2023-05-22T10:16:34;101015.81;;;17.83;61.88
60974;BME280;46846;51.528;5.076;2023-05-22T10:19:02;101013.78;;;17.86;61.98
60974;BME280;46846;51.528;5.076;2023-05-22T10:21:29;101017.81;;;17.94;61.95
60974;BME280;46846;51.528;5.076;2023-05-22T10:23:58;101020.75;;;18.05;62.13
60974;BME280;46846;51.528;5.076;2023-05-22T10:26:24;101024.88;;;18.11;61.01
60974;BME280;46846;51.528;5.076;2023-05-22T10:29:11;101014.94;;;18.11;61.20
60974;BME280;46846;51.528;5.076;2023-05-22T10:32:00;101016.50;;;18.15;61.28
60974;BME280;46846;51.528;5.076;2023-05-22T10:34:39;101011.69;;;18.21;61.33
60974;BME280;46846;51.528;5.076;2023-05-22T10:37:36;101012.06;;;18.29;61.47
60974;BME280;46846;51.528;5.076;2023-05-22T10:40:10;101007.03;;;18.37;61.62
60974;BME280;46846;51.528;5.076;2023-05-22T10:42:37;101010.19;;;18.44;61.22
60974;BME280;46846;51.528;5.076;2023-05-22T10:45:06;101003.56;;;18.50;62.01
60974;BME280;46846;51.528;5.076;2023-05-22T10:47:34;101000.03;;;18.62;62.00
60974;BME280;46846;51.528;5.076;2023-05-22T10:50:10;100995.13;;;18.69;61.13
60974;BME280;46846;51.528;5.076;2023-05-22T10:52:36;100997.28;;;18.77;61.25
60974;BME280;46846;51.528;5.076;2023-05-22T10:55:06;100998.81;;;18.81;61.61
60974;BME280;46846;51.528;5.076;2023-05-22T10:57:34;100994.53;;;18.91;61.58
60974;BME280;46846;51.528;5.076;2023-05-22T11:00:08;101006.06;;;18.93;60.94
60974;BME280;46846;51.528;5.076;2023-05-22T11:02:44;100993.00;;;19.02;61.08
60974;BME280;46846;51.528;5.076;2023-05-22T11:10:54;100995.16;;;19.22;61.15
60974;BME280;46846;51.528;5.076;2023-05-22T11:13:20;100992.28;;;19.25;61.05
60974;BME280;46846;51.528;5.076;2023-05-22T11:15:49;100996.28;;;19.33;61.04
60974;BME280;46846;51.528;5.076;2023-05-22T11:18:15;100985.69;;;19.30;61.10
60974;BME280;46846;51.528;5.076;2023-05-22T11:20:41;100984.09;;;19.40;61.50
60974;BME280;46846;51.528;5.076;2023-05-22T11:23:09;100981.91;;;19.45;60.83
60974;BME280;46846;51.528;5.076;2023-05-22T11:25:39;100983.75;;;19.58;60.65
60974;BME280;46846;51.528;5.076;2023-05-22T11:28:05;100983.88;;;19.69;60.97
60974;BME280;46846;51.528;5.076;2023-05-22T11:30:31;100991.00;;;19.70;60.47
60974;BME280;46846;51.528;5.076;2023-05-22T11:32:59;100984.94;;;19.79;60.35
60974;BME280;46846;51.528;5.076;2023-05-22T11:35:24;100983.84;;;19.82;60.16
60974;BME280;46846;51.528;5.076;2023-05-22T11:37:51;100980.41;;;19.80;60.81
60974;BME280;46846;51.528;5.076;2023-05-22T11:40:18;100984.91;;;19.92;60.38
60974;BME280;46846;51.528;5.076;2023-05-22T11:42:53;100982.78;;;19.98;60.41
60974;BME280;46846;51.528;5.076;2023-05-22T11:45:19;100992.06;;;20.06;60.22
60974;BME280;46846;51.528;5.076;2023-05-22T11:47:45;100978.09;;;20.13;59.96
60974;BME280;46846;51.528;5.076;2023-05-22T11:50:11;100972.88;;;20.22;60.12
60974;BME280;46846;51.528;5.076;2023-05-22T11:52:38;100986.81;;;20.29;60.08
60974;BME280;46846;51.528;5.076;2023-05-22T11:55:05;100969.63;;;20.30;60.11
60974;BME280;46846;51.528;5.076;2023-05-22T11:57:30;100976.75;;;20.31;60.06
60974;BME280;46846;51.528;5.076;2023-05-22T11:59:57;100982.06;;;20.33;60.12
60974;BME280;46846;51.528;5.076;2023-05-22T12:02:22;100977.06;;;20.40;59.91
60974;BME280;46846;51.528;5.076;2023-05-22T12:04:55;100965.34;;;20.52;59.54
60974;BME280;46846;51.528;5.076;2023-05-22T12:07:22;100977.00;;;20.53;59.67
60974;BME280;46846;51.528;5.076;2023-05-22T12:09:48;100974.72;;;20.59;59.47
60974;BME280;46846;51.528;5.076;2023-05-22T12:12:17;100980.13;;;20.59;59.94
60974;BME280;46846;51.528;5.076;2023-05-22T12:14:44;100976.09;;;20.65;59.72
60974;BME280;46846;51.528;5.076;2023-05-22T12:17:13;100971.25;;;20.57;60.30
60974;BME280;46846;51.528;5.076;2023-05-22T12:19:40;100985.34;;;20.74;59.69
60974;BME280;46846;51.528;5.076;2023-05-22T12:22:05;100987.47;;;20.82;59.69
60974;BME280;46846;51.528;5.076;2023-05-22T12:24:57;100987.38;;;20.83;59.64
60974;BME280;46846;51.528;5.076;2023-05-22T12:27:22;100993.53;;;20.85;59.32
60974;BME280;46846;51.528;5.076;2023-05-22T12:29:48;100987.66;;;20.92;59.41
60974;BME280;46846;51.528;5.076;2023-05-22T12:32:13;100983.72;;;20.96;59.71
60974;BME280;46846;51.528;5.076;2023-05-22T12:34:46;100987.69;;;21.03;59.73
60974;BME280;46846;51.528;5.076;2023-05-22T12:37:22;100987.22;;;21.09;59.40
60974;BME280;46846;51.528;5.076;2023-05-22T12:39:56;100988.63;;;21.15;59.16
60974;BME280;46846;51.528;5.076;2023-05-22T12:42:22;100983.19;;;21.15;59.37
60974;BME280;46846;51.528;5.076;2023-05-22T12:44:49;100980.34;;;21.16;59.48
60974;BME280;46846;51.528;5.076;2023-05-22T12:47:16;100976.97;;;21.26;59.40
60974;BME280;46846;51.528;5.076;2023-05-22T12:49:41;100983.84;;;21.30;59.75
60974;BME280;46846;51.528;5.076;2023-05-22T12:52:06;100980.88;;;21.22;59.35
60974;BME280;46846;51.528;5.076;2023-05-22T12:54:32;100979.53;;;21.27;59.42
60974;BME280;46846;51.528;5.076;2023-05-22T12:56:57;100982.38;;;21.37;59.72
60974;BME280;46846;51.528;5.076;2023-05-22T12:59:22;100977.84;;;21.38;59.44
60974;BME280;46846;51.528;5.076;2023-05-22T13:01:48;100980.53;;;21.38;59.94
60974;BME280;46846;51.528;5.076;2023-05-22T13:04:13;100971.28;;;21.40;59.22